Time;durP1;ratioP1;P1;durP2;ratioP2;P2;SDS_P1;SDS_P2;PMS_P1;PMS_P2;Temp;Humidity;BMP_temperature;BMP_pressure;BME280_temperature;BME280_humidity;BME280_pressure;Samples;Min_cycle;Max_cycle;Signal;HPM_P1;HPM_P2
2021/05/26 00:01:09;;;;;;;9.38;8.48;;;;;;;16.82;90.90;96982.91;4909292;29;20036;-63
2021/05/26 00:03:35;;;;;;;9.48;7.78;;;;;;;17.17;91.21;97030.16;4907913;29;20179;-63
2021/05/26 00:06:01;;;;;;;11.73;7.88;;;;;;;16.87;91.48;96999.25;4909463;29;20247;-63
2021/05/26 00:08:28;;;;;;;11.52;8.70;;;;;;;17.13;90.87;97027.44;4909730;29;20055;-64
2021/05/26 00:10:54;;;;;;;9.60;8.02;;;;;;;16.68;90.54;96963.47;4908171;29;20125;-63
2021/05/26 00:13:20;;;;;;;8.40;7.57;;;;;;;16.98;91.24;97027.94;4909916;29;20950;-62
2021/05/26 00:15:46;;;;;;;9.98;8.93;;;;;;;16.93;91.76;97031.19;4909307;29;20426;-63
2021/05/26 00:18:12;;;;;;;8.80;7.90;;;;;;;16.98;91.60;97027.94;4907800;29;20036;-62
2021/05/26 00:20:37;;;;;;;10.18;8.57;;;;;;;16.78;92.49;97004.53;4909120;29;20032;-63
2021/05/26 00:23:03;;;;;;;9.70;8.70;;;;;;;16.89;92.90;97024.81;4923722;29;20028;-63
2021/05/26 00:25:28;;;;;;;9.63;8.25;;;;;;;16.67;92.51;96978.63;4909055;29;20043;-63
2021/05/26 00:27:58;;;;;;;13.15;8.43;;;;;;;16.51;93.64;96977.16;4909136;29;20501;-63
2021/05/26 00:30:29;;;;;;;8.55;7.75;;;;;;;16.77;94.22;97028.13;4909280;29;20035;-63
2021/05/26 00:32:55;;;;;;;9.23;8.10;;;;;;;16.90;92.78;97020.84;4909047;29;20115;-63
2021/05/26 00:35:21;;;;;;;8.45;7.53;;;;;;;16.30;93.68;96949.31;4907357;29;20073;-64
2021/05/26 00:37:46;;;;;;;8.93;8.05;;;;;;;16.42;92.57;96946.03;4907624;29;20039;-64
2021/05/26 00:40:12;;;;;;;8.40;7.28;;;;;;;16.52;92.06;96977.94;4908834;29;20051;-64
2021/05/26 00:42:39;;;;;;;12.68;11.35;;;;;;;16.66;93.30;97016.22;4908947;29;20123;-65
2021/05/26 00:45:05;;;;;;;13.90;12.35;;;;;;;16.36;93.84;96975.63;4907573;29;20048;-63
2021/05/26 00:47:39;;;;;;;12.65;11.43;;;;;;;16.66;94.40;97019.00;4909385;29;20127;-64
2021/05/26 00:50:06;;;;;;;13.80;10.57;;;;;;;16.57;94.21;96997.09;4907171;29;20500;-64
2021/05/26 00:52:31;;;;;;;12.50;9.40;;;;;;;16.47;94.60;96975.59;4907867;29;20040;-64
2021/05/26 00:54:57;;;;;;;10.95;9.10;;;;;;;16.58;93.67;96993.88;4908698;29;20420;-63
2021/05/26 00:57:22;;;;;;;16.38;9.43;;;;;;;16.63;94.12;97013.03;4906714;29;20508;-63
2021/05/26 00:59:48;;;;;;;12.77;9.98;;;;;;;16.61;93.92;97004.25;4908697;29;20032;-64
2021/05/26 01:02:14;;;;;;;12.02;8.73;;;;;;;16.18;93.96;96947.00;4907451;29;20102;-63
2021/05/26 01:04:39;;;;;;;11.38;8.65;;;;;;;16.51;94.18;96999.53;4908789;29;20058;-65
2021/05/26 01:07:05;;;;;;;9.93;8.98;;;;;;;16.55;94.52;96993.91;4906700;29;20108;-63
2021/05/26 01:09:30;;;;;;;9.93;7.90;;;;;;;16.62;93.57;97005.03;4908811;29;20044;-64
2021/05/26 01:11:55;;;;;;;10.65;8.15;;;;;;;13.30;94.12;96484.59;4906811;29;20111;-63
2021/05/26 01:14:21;;;;;;;12.45;9.18;;;;;;;16.52;94.33;97001.13;4922732;29;22352;-63
2021/05/26 01:16:46;;;;;;;10.63;9.18;;;;;;;16.55;94.47;96997.50;4922849;29;20103;-64
2021/05/26 01:19:15;;;;;;;9.32;8.35;;;;;;;16.53;93.68;97011.09;4908752;29;20043;-66
2021/05/26 01:21:41;;;;;;;9.50;8.13;;;;;;;14.19;92.45;96630.66;4922857;29;20119;-64
2021/05/26 01:24:07;;;;;;;10.02;8.57;;;;;;;16.48;93.64;97014.34;4907019;29;20039;-64
2021/05/26 01:26:32;;;;;;;9.35;8.35;;;;;;;16.33;93.36;96965.25;4922509;29;20060;-64
2021/05/26 01:28:57;;;;;;;11.60;8.25;;;;;;;16.00;93.72;96935.13;4908519;29;20467;-64
2021/05/26 01:31:23;;;;;;;9.77;8.48;;;;;;;16.36;93.78;96981.22;4906432;29;20056;-63
2021/05/26 01:33:48;;;;;;;9.65;8.65;;;;;;;16.00;94.32;96939.91;4908686;29;20083;-64
2021/05/26 01:36:14;;;;;;;9.50;8.45;;;;;;;16.48;94.80;97005.16;4908383;29;20054;-65
2021/05/26 01:38:39;;;;;;;10.05;8.73;;;;;;;16.45;94.48;97017.94;4908049;29;20495;-63
2021/05/26 01:41:05;;;;;;;9.88;8.88;;;;;;;16.49;94.43;97015.13;4907926;29;20040;-64
2021/05/26 01:43:32;;;;;;;9.15;8.23;;;;;;;16.46;93.59;97011.16;4908063;29;20428;-64
2021/05/26 01:46:00;;;;;;;8.93;7.93;;;;;;;16.40;94.09;97009.16;4921430;29;20515;-66
2021/05/26 01:48:25;;;;;;;9.98;8.98;;;;;;;16.14;94.39;96978.94;4906642;29;20032;-64
2021/05/26 01:50:50;;;;;;;11.15;9.15;;;;;;;16.31;94.88;97000.44;4905935;29;20048;-65
2021/05/26 01:53:16;;;;;;;13.43;9.20;;;;;;;15.45;94.93;96872.78;4907909;29;20496;-64
2021/05/26 01:55:42;;;;;;;13.07;8.80;;;;;;;16.32;94.73;97007.59;4906170;29;20048;-64
2021/05/26 01:58:07;;;;;;;11.27;8.60;;;;;;;16.37;93.50;96999.59;4908786;29;20627;-65
2021/05/26 02:00:33;;;;;;;9.77;8.93;;;;;;;16.38;93.91;97023.53;4905850;29;20052;-63
2021/05/26 02:02:59;;;;;;;10.65;8.57;;;;;;;16.26;93.94;97007.25;4907721;29;20911;-64
2021/05/26 02:05:24;;;;;;;9.48;8.48;;;;;;;16.33;94.67;97010.00;4906184;29;20095;-63
2021/05/26 02:07:52;;;;;;;10.05;9.00;;;;;;;16.31;93.83;97023.56;4905940;29;20483;-63
2021/05/26 02:12:20;;;;;;;10.90;8.45;;;;;;;16.25;94.28;97018.81;4907482;29;20396;-64
2021/05/26 02:13:04;;;;;;;10.93;8.73;;;;;;;16.22;94.81;97026.03;4907678;29;20588;-64
2021/05/26 02:15:30;;;;;;;9.48;8.57;;;;;;;15.91;93.70;96987.88;4907157;29;20044;-65
2021/05/26 02:17:56;;;;;;;10.07;7.90;;;;;;;16.16;94.55;97030.47;4908455;29;20510;-64
2021/05/26 02:20:21;;;;;;;9.75;8.73;;;;;;;15.46;94.16;96921.84;4907793;29;20843;-64
2021/05/26 02:22:47;;;;;;;13.90;8.55;;;;;;;16.13;95.37;97025.69;4921974;29;20036;-64
2021/05/26 02:25:12;;;;;;;15.75;9.15;;;;;;;16.10;95.19;97017.31;4907337;29;20032;-63
2021/05/26 02:27:38;;;;;;;10.68;9.48;;;;;;;15.92;94.28;97000.63;4906272;29;20979;-63
2021/05/26 02:30:06;;;;;;;9.35;8.40;;;;;;;16.10;94.14;97029.31;4907638;29;20043;-65
2021/05/26 02:32:31;;;;;;;10.90;9.05;;;;;;;16.11;94.23;97030.88;4907280;29;20531;-63
2021/05/26 02:34:57;;;;;;;11.70;8.15;;;;;;;15.94;95.70;97026.19;4907637;29;20047;-64
2021/05/26 02:37:22;;;;;;;15.07;9.73;;;;;;;16.11;94.88;97044.84;4907357;29;20036;-62
2021/05/26 02:39:48;;;;;;;17.55;12.93;;;;;;;13.96;94.70;96699.97;4906078;29;20499;-64
2021/05/26 02:42:13;;;;;;;16.90;13.45;;;;;;;16.06;94.81;97045.28;4907014;29;20024;-62
2021/05/26 02:44:39;;;;;;;19.67;14.93;;;;;;;15.62;95.08;96978.00;4921648;29;20032;-63
2021/05/26 02:47:04;;;;;;;15.98;14.32;;;;;;;15.71;95.81;96995.13;4907368;29;20068;-62
2021/05/26 02:49:30;;;;;;;18.33;13.07;;;;;;;15.93;96.27;97044.13;4907228;29;20088;-64
2021/05/26 02:51:55;;;;;;;16.83;13.65;;;;;;;15.99;95.13;97039.72;4906678;29;20063;-64
2021/05/26 02:54:21;;;;;;;16.52;14.77;;;;;;;15.72;94.80;96991.16;4905758;29;20036;-63
2021/05/26 02:56:46;;;;;;;14.75;13.25;;;;;;;15.52;94.90;96976.06;4907535;29;20044;-64
2021/05/26 02:59:11;;;;;;;12.80;11.10;;;;;;;15.91;95.22;97038.16;4921356;29;20040;-63
2021/05/26 03:01:37;;;;;;;14.30;12.90;;;;;;;15.24;95.00;96942.63;4907187;29;20052;-63
2021/05/26 03:04:03;;;;;;;15.00;13.10;;;;;;;15.80;96.24;97051.38;4905535;29;20036;-64
2021/05/26 03:06:29;;;;;;;15.80;14.02;;;;;;;15.26;98.83;97060.22;4906983;29;20055;-64
2021/05/26 03:08:55;;;;;;;16.10;13.52;;;;;;;14.98;99.32;97007.25;4905401;29;20046;-63
2021/05/26 03:11:20;;;;;;;18.70;16.35;;;;;;;14.75;100.00;96978.94;4907112;29;20044;-63
2021/05/26 03:13:46;;;;;;;20.08;17.67;;;;;;;15.31;100.00;97062.63;4907428;29;20119;-63
2021/05/26 03:16:12;;;;;;;18.45;16.55;;;;;;;15.38;99.75;97068.22;4906592;29;20040;-63
2021/05/26 03:18:38;;;;;;;18.40;15.25;;;;;;;15.46;99.24;97072.59;4910686;29;20032;-64
2021/05/26 03:21:04;;;;;;;17.60;15.45;;;;;;;15.62;98.09;97067.38;4940534;29;20040;-64
2021/05/26 03:23:30;;;;;;;20.10;15.55;;;;;;;14.93;96.99;96921.19;4910251;29;20400;-65
2021/05/26 03:25:55;;;;;;;16.90;14.88;;;;;;;15.08;96.81;96950.63;4908545;29;20046;-63
2021/05/26 03:28:21;;;;;;;19.13;14.50;;;;;;;15.82;96.44;97074.09;4910652;29;20120;-65
2021/05/26 03:30:47;;;;;;;17.50;14.20;;;;;;;15.57;95.85;97006.34;4910511;29;20480;-63
2021/05/26 03:33:16;;;;;;;12.60;10.85;;;;;;;15.91;93.74;97032.56;4924408;29;20519;-63
2021/05/26 03:35:42;;;;;;;12.20;10.90;;;;;;;16.33;91.72;97076.28;4909892;29;20143;-64
2021/05/26 03:38:09;;;;;;;10.77;9.60;;;;;;;16.33;91.61;97071.50;4910163;29;20079;-62
2021/05/26 03:40:36;;;;;;;13.32;9.88;;;;;;;16.49;91.00;97074.66;4909856;29;20063;-63
2021/05/26 03:43:03;;;;;;;10.20;9.10;;;;;;;16.50;90.90;97087.41;4909936;29;20067;-63
2021/05/26 03:45:29;;;;;;;10.65;9.65;;;;;;;16.50;88.96;97031.47;4910136;29;20128;-64
2021/05/26 03:47:56;;;;;;;10.77;9.73;;;;;;;16.74;89.93;97079.31;4924596;29;20118;-64
2021/05/26 03:50:22;;;;;;;10.32;8.48;;;;;;;16.89;88.76;97069.59;4909469;29;20072;-64
2021/05/26 03:52:48;;;;;;;15.25;8.70;;;;;;;16.94;88.04;97080.34;4909699;29;20090;-64
2021/05/26 03:55:17;;;;;;;9.93;8.93;;;;;;;17.04;87.87;97082.28;4907712;29;20139;-65
2021/05/26 03:57:42;;;;;;;9.57;8.60;;;;;;;16.95;87.12;97039.94;4909919;29;20039;-64
2021/05/26 04:00:10;;;;;;;9.77;8.80;;;;;;;17.15;87.05;97077.41;4907725;29;20496;-64
2021/05/26 04:02:36;;;;;;;12.77;9.07;;;;;;;17.37;86.68;97079.56;4910184;29;20032;-65
2021/05/26 04:05:03;;;;;;;12.35;9.70;;;;;;;17.14;86.42;97075.78;4908723;29;20071;-63
2021/05/26 04:07:28;;;;;;;11.35;8.85;;;;;;;17.49;86.69;97081.13;4909590;29;20032;-67
2021/05/26 04:09:53;;;;;;;10.52;9.02;;;;;;;17.59;86.54;97086.59;4908133;29;20043;-64
2021/05/26 04:12:19;;;;;;;11.38;8.38;;;;;;;17.67;85.93;97092.97;4909468;29;20036;-64
2021/05/26 04:14:44;;;;;;;10.30;8.45;;;;;;;17.60;87.02;97087.41;4909500;29;20492;-65
2021/05/26 04:17:10;;;;;;;12.88;9.68;;;;;;;17.51;86.81;97092.72;4909308;29;20032;-65
2021/05/26 04:19:36;;;;;;;14.38;11.00;;;;;;;17.62;87.15;97090.59;4909761;29;20571;-63
2021/05/26 04:22:01;;;;;;;9.73;8.73;;;;;;;17.38;85.78;97029.97;4907758;29;20511;-65
2021/05/26 04:24:27;;;;;;;12.77;10.35;;;;;;;17.47;87.87;97089.13;4909421;29;20111;-64
2021/05/26 04:26:52;;;;;;;13.15;9.77;;;;;;;17.77;86.42;97100.44;4907006;29;20095;-64
2021/05/26 04:29:19;;;;;;;14.43;11.27;;;;;;;17.45;87.75;97071.97;4908462;29;20028;-64
2021/05/26 04:31:45;;;;;;;12.50;10.00;;;;;;;17.80;86.04;97072.38;4908382;29;20094;-64
2021/05/26 04:34:10;;;;;;;12.90;9.98;;;;;;;18.22;84.85;97089.94;4909254;29;20059;-63
2021/05/26 04:36:35;;;;;;;11.48;10.30;;;;;;;18.34;83.89;97092.97;4907497;29;20427;-64
2021/05/26 04:39:01;;;;;;;13.20;12.00;;;;;;;17.55;88.91;97096.25;4907945;29;20032;-64
2021/05/26 04:41:27;;;;;;;12.45;11.35;;;;;;;17.34;90.80;97068.44;4908898;29;20678;-63
2021/05/26 04:43:52;;;;;;;14.00;12.52;;;;;;;17.65;88.35;97028.94;4906648;29;20028;-64
2021/05/26 04:46:17;;;;;;;11.25;9.95;;;;;;;18.31;86.60;97077.00;4890367;29;20038;-64
2021/05/26 04:48:43;;;;;;;10.75;9.55;;;;;;;17.62;85.74;96945.72;4904278;29;20509;-64
2021/05/26 04:51:08;;;;;;;9.95;8.90;;;;;;;18.58;84.01;97030.16;4891064;29;20612;-63
2021/05/26 04:53:34;;;;;;;10.85;8.57;;;;;;;19.10;83.07;97070.66;4923319;29;20657;-63
2021/05/26 04:55:59;;;;;;;10.55;9.43;;;;;;;19.30;82.30;97065.94;4907043;29;20048;-64
2021/05/26 04:58:25;;;;;;;10.05;8.52;;;;;;;19.58;81.14;97065.44;4908795;29;20131;-64
2021/05/26 05:00:50;;;;;;;13.38;8.40;;;;;;;19.66;79.18;97028.78;4908216;29;20117;-64
2021/05/26 05:03:15;;;;;;;9.85;8.35;;;;;;;19.89;78.87;97056.84;4908931;29;20084;-64
2021/05/26 05:05:41;;;;;;;9.88;8.55;;;;;;;20.10;78.39;97078.94;4922429;29;20084;-63
2021/05/26 05:08:08;;;;;;;10.52;9.52;;;;;;;19.73;77.45;96992.13;4909042;29;20495;-63
2021/05/26 05:10:33;;;;;;;10.48;9.35;;;;;;;19.21;77.50;96896.34;4906342;29;20186;-62
2021/05/26 05:12:59;;;;;;;10.00;8.95;;;;;;;20.23;75.89;97015.22;4922768;29;20103;-63
2021/05/26 05:15:25;;;;;;;9.63;8.63;;;;;;;20.59;75.61;97050.59;4907977;29;20183;-63
2021/05/26 05:17:51;;;;;;;12.35;8.80;;;;;;;20.88;74.79;97062.78;4907005;29;20087;-63
2021/05/26 05:20:21;;;;;;;11.40;8.50;;;;;;;21.06;73.59;97073.69;4906500;29;20039;-63
2021/05/26 05:22:48;;;;;;;11.30;8.88;;;;;;;21.26;73.02;97071.56;4908497;29;20427;-63
2021/05/26 05:25:13;;;;;;;8.95;8.10;;;;;;;19.47;73.05;96783.88;4908212;29;20046;-63
2021/05/26 05:27:39;;;;;;;11.45;8.60;;;;;;;20.85;73.77;96978.38;4908546;29;20039;-64
2021/05/26 05:30:05;;;;;;;12.50;9.15;;;;;;;21.31;74.28;97067.47;4907933;29;20511;-64
2021/05/26 05:32:31;;;;;;;12.50;9.00;;;;;;;21.35;74.20;97063.31;4938164;29;20063;-63
2021/05/26 05:34:57;;;;;;;12.63;10.55;;;;;;;20.99;74.98;97037.25;4904862;29;20040;-61
2021/05/26 05:37:22;;;;;;;14.90;10.45;;;;;;;21.63;73.67;97067.44;4909272;29;20038;-65
2021/05/26 05:39:47;;;;;;;11.50;9.60;;;;;;;21.58;72.78;97049.03;4895973;29;20040;-64
2021/05/26 05:42:13;;;;;;;10.48;9.38;;;;;;;21.75;72.67;97050.59;4902797;29;20583;-62
2021/05/26 05:44:38;;;;;;;10.80;9.48;;;;;;;21.90;73.30;97065.94;4906520;29;20036;-67
2021/05/26 05:47:04;;;;;;;11.90;9.82;;;;;;;21.84;75.26;97067.72;4921973;29;20127;-65
2021/05/26 05:49:30;;;;;;;11.85;10.65;;;;;;;21.40;76.41;97040.25;4905790;29;20071;-67
2021/05/26 05:51:55;;;;;;;10.75;9.65;;;;;;;20.96;77.89;97069.09;4906647;29;20415;-64
2021/05/26 05:54:20;;;;;;;11.77;10.15;;;;;;;21.39;76.56;97069.66;4925667;29;20043;-74
2021/05/26 05:56:46;;;;;;;11.95;9.18;;;;;;;21.44;74.36;97038.13;4889056;29;20056;-69
2021/05/26 05:59:11;;;;;;;10.48;9.38;;;;;;;21.87;74.40;97078.09;4903449;29;20035;-68
2021/05/26 06:01:37;;;;;;;13.88;9.27;;;;;;;22.05;73.78;97086.09;4900420;29;20083;-64
2021/05/26 06:04:03;;;;;;;13.02;9.40;;;;;;;21.54;73.96;96997.59;4907150;29;20028;-62
2021/05/26 06:06:28;;;;;;;12.00;9.30;;;;;;;21.68;71.52;97002.03;4905090;29;20403;-62
2021/05/26 06:08:53;;;;;;;10.05;9.15;;;;;;;22.04;70.81;97014.75;4897901;29;20024;-70
2021/05/26 06:11:19;;;;;;;12.82;8.85;;;;;;;22.67;70.70;97079.09;4905736;29;20036;-68
2021/05/26 06:13:48;;;;;;;9.98;9.13;;;;;;;22.28;69.24;96973.72;4907702;29;20036;-68
2021/05/26 06:16:13;;;;;;;12.52;10.95;;;;;;;21.59;73.70;97011.13;4907126;29;20044;-63
2021/05/26 06:18:39;;;;;;;9.85;8.95;;;;;;;22.19;72.32;97021.56;4907522;29;20039;-69
2021/05/26 06:21:04;;;;;;;9.38;8.45;;;;;;;22.36;70.67;97003.34;4907102;29;20091;-61
2021/05/26 06:23:30;;;;;;;12.95;10.60;;;;;;;21.90;75.17;97059.47;4908392;29;20481;-66
2021/05/26 06:25:55;;;;;;;12.63;10.57;;;;;;;21.87;75.11;96987.03;4906707;29;20040;-71
2021/05/26 06:28:21;;;;;;;12.35;9.57;;;;;;;22.22;71.94;96992.44;4901904;29;20092;-71
2021/05/26 06:30:47;;;;;;;10.30;9.27;;;;;;;23.30;72.19;97077.13;4901491;29;20040;-72
2021/05/26 06:33:12;;;;;;;14.05;8.88;;;;;;;23.39;70.00;97048.94;4906295;29;20056;-70
2021/05/26 06:35:38;;;;;;;10.75;9.75;;;;;;;22.90;72.04;97037.19;4901591;29;20041;-71
2021/05/26 06:38:03;;;;;;;10.15;9.15;;;;;;;23.34;73.00;97066.47;4888719;29;20039;-72
2021/05/26 06:40:29;;;;;;;10.93;9.80;;;;;;;23.85;70.31;97053.84;4898945;29;20524;-61
2021/05/26 06:42:54;;;;;;;13.20;10.10;;;;;;;23.52;68.93;96970.53;4937655;29;20048;-63
2021/05/26 06:45:20;;;;;;;15.02;9.68;;;;;;;23.77;70.86;97089.28;4904039;29;20047;-71
2021/05/26 06:47:46;;;;;;;10.82;9.32;;;;;;;23.79;68.97;97001.88;4922324;29;20462;-71
2021/05/26 06:50:12;;;;;;;12.73;9.80;;;;;;;22.95;68.78;96928.47;4915053;29;20032;-72
2021/05/26 06:52:37;;;;;;;10.07;8.88;;;;;;;23.67;67.87;96951.81;4941461;29;20050;-68
2021/05/26 06:55:03;;;;;;;12.00;9.48;;;;;;;24.33;67.47;96996.66;4909628;29;20049;-68
2021/05/26 06:57:28;;;;;;;12.85;9.48;;;;;;;24.70;64.53;97014.72;4911350;29;20036;-64
2021/05/26 06:59:54;;;;;;;17.55;9.60;;;;;;;25.30;61.84;97058.44;4911185;29;20036;-62
2021/05/26 07:02:19;;;;;;;10.75;9.05;;;;;;;24.39;64.18;97034.47;4910321;29;20028;-75
2021/05/26 07:04:45;;;;;;;10.82;8.73;;;;;;;24.51;62.87;96991.13;4910831;29;20511;-75
2021/05/26 07:07:10;;;;;;;15.35;9.48;;;;;;;25.08;60.79;97057.72;4938696;29;20040;-68
2021/05/26 07:09:36;;;;;;;15.88;10.65;;;;;;;25.24;58.83;97032.72;4903145;29;20114;-75
2021/05/26 07:12:01;;;;;;;15.00;9.07;;;;;;;25.01;57.17;96968.09;4917641;29;20037;-69
2021/05/26 07:14:27;;;;;;;12.38;9.00;;;;;;;25.55;55.96;97009.22;4891754;29;20032;-65
2021/05/26 07:16:52;;;;;;;12.50;9.70;;;;;;;25.31;55.13;96958.72;4923753;29;20123;-62
2021/05/26 07:19:18;;;;;;;34.03;18.73;;;;;;;25.86;54.80;96998.53;4912062;29;20056;-62
2021/05/26 07:21:44;;;;;;;12.32;9.65;;;;;;;25.92;54.46;96976.78;4910458;29;20223;-68
2021/05/26 07:24:09;;;;;;;14.15;9.30;;;;;;;26.64;53.18;97042.09;4939523;29;20024;-66
2021/05/26 07:26:35;;;;;;;21.50;16.70;;;;;;;26.22;53.42;96958.81;4919362;29;20070;-64
2021/05/26 07:29:00;;;;;;;17.35;10.65;;;;;;;26.85;53.20;97046.00;4909218;29;20480;-66
2021/05/26 07:31:26;;;;;;;11.15;9.43;;;;;;;26.63;52.79;97023.44;4909614;29;20161;-66
2021/05/26 07:33:52;;;;;;;21.50;12.07;;;;;;;26.71;54.01;97041.78;4908790;29;20040;-71
2021/05/26 07:36:18;;;;;;;14.27;10.70;;;;;;;26.88;53.00;97028.78;4909867;29;20048;-73
2021/05/26 07:38:44;;;;;;;24.38;14.95;;;;;;;26.03;52.99;96968.59;4923587;29;20447;-74
2021/05/26 07:41:10;;;;;;;13.82;11.10;;;;;;;26.08;54.18;96960.22;4909880;29;20036;-70
2021/05/26 07:43:36;;;;;;;16.55;12.45;;;;;;;26.37;53.19;97040.06;4908598;29;20028;-65
2021/05/26 07:46:03;;;;;;;12.85;11.48;;;;;;;26.63;52.44;97006.38;4909923;28;20552;-72
2021/05/26 07:48:29;;;;;;;17.40;13.68;;;;;;;27.09;51.91;97044.81;4909867;29;20086;-70
2021/05/26 07:50:54;;;;;;;16.25;10.85;;;;;;;26.62;51.36;96959.31;4907718;29;20087;-64
2021/05/26 07:53:20;;;;;;;13.80;10.40;;;;;;;26.96;52.71;97012.94;4903407;29;20036;-66
2021/05/26 07:55:45;;;;;;;13.45;11.27;;;;;;;26.37;52.47;96994.59;4900327;29;20084;-68
2021/05/26 07:58:11;;;;;;;18.10;11.68;;;;;;;27.05;52.75;97032.00;4889519;29;20024;-61
2021/05/26 08:00:37;;;;;;;14.07;11.65;;;;;;;27.24;51.32;97005.88;4890417;29;20040;-71
2021/05/26 08:03:03;;;;;;;14.23;10.95;;;;;;;27.65;50.70;97036.34;4890875;29;20024;-60
2021/05/26 08:05:29;;;;;;;19.35;11.25;;;;;;;27.77;50.44;97015.38;4890137;29;20036;-65
2021/05/26 08:07:54;;;;;;;13.32;11.05;;;;;;;28.24;49.00;97028.03;4903107;29;20058;-69
2021/05/26 08:10:20;;;;;;;16.88;11.18;;;;;;;26.98;47.85;96851.19;4918660;29;20055;-68
2021/05/26 08:12:45;;;;;;;12.82;10.20;;;;;;;27.41;50.09;97009.91;4923534;29;20036;-69
2021/05/26 08:15:13;;;;;;;12.73;9.50;;;;;;;27.35;50.18;97028.91;4934655;29;20044;-66
2021/05/26 08:17:39;;;;;;;14.45;10.25;;;;;;;27.67;48.99;97030.16;4909531;29;20028;-64
2021/05/26 08:20:06;;;;;;;13.30;11.95;;;;;;;27.59;48.43;97014.72;4909307;29;20496;-62
2021/05/26 08:22:32;;;;;;;10.95;9.82;;;;;;;26.41;49.65;96937.63;4902532;29;20115;-61
2021/05/26 08:24:58;;;;;;;16.77;10.80;;;;;;;26.73;50.27;96948.25;4909143;29;20055;-71
2021/05/26 08:27:24;;;;;;;16.30;11.18;;;;;;;27.09;50.46;97016.38;4906045;29;20075;-67
2021/05/26 08:29:52;;;;;;;15.20;10.32;;;;;;;26.61;50.56;96969.91;4910215;29;20044;-60
2021/05/26 08:32:17;;;;;;;11.95;10.32;;;;;;;26.80;48.94;96953.63;4906341;29;20519;-68
2021/05/26 08:34:43;;;;;;;11.57;10.35;;;;;;;27.16;49.85;97033.09;4899370;29;20092;-68
2021/05/26 08:37:08;;;;;;;17.50;11.00;;;;;;;27.42;49.68;97031.44;4896585;29;20067;-70
2021/05/26 08:39:35;;;;;;;16.30;10.13;;;;;;;27.16;48.98;96944.91;4909055;29;20039;-71
2021/05/26 08:42:02;;;;;;;14.02;9.57;;;;;;;27.84;46.53;96957.28;4936778;29;20541;-61
2021/05/26 08:44:28;;;;;;;18.23;10.32;;;;;;;27.31;48.60;96934.44;4897741;29;20072;-67
2021/05/26 08:46:53;;;;;;;15.20;9.20;;;;;;;27.89;47.49;96983.06;4894030;29;20044;-69
2021/05/26 08:49:20;;;;;;;14.50;9.55;;;;;;;27.62;48.41;96999.50;4908541;29;20427;-62
2021/05/26 08:51:46;;;;;;;11.27;10.15;;;;;;;28.03;48.38;97022.19;4919365;29;20584;-61
2021/05/26 08:54:12;;;;;;;10.80;9.25;;;;;;;28.51;46.73;97025.75;4908928;29;20538;-59
2021/05/26 08:56:38;;;;;;;11.93;10.05;;;;;;;28.27;46.59;96970.06;4911004;29;20044;-71
2021/05/26 08:59:04;;;;;;;21.08;13.32;;;;;;;28.57;46.61;97026.66;4898053;29;20475;-60
2021/05/26 09:01:29;;;;;;;13.25;11.23;;;;;;;27.37;47.51;96855.66;4901886;29;20032;-62
2021/05/26 09:03:55;;;;;;;13.85;11.07;;;;;;;29.10;47.31;97018.78;4914579;29;20031;-60
2021/05/26 09:06:20;;;;;;;13.13;9.68;;;;;;;29.10;46.00;96967.44;4913004;29;20341;-65
2021/05/26 09:08:50;;;;;;;14.30;10.13;;;;;;;29.88;46.18;97009.34;4919037;29;20074;-62
2021/05/26 09:11:28;;;;;;;11.50;9.88;;;;;;;29.98;44.81;97021.41;4908507;29;20043;-59
2021/05/26 09:13:54;;;;;;;15.15;11.15;;;;;;;28.19;45.06;96898.44;4913134;29;20036;-72
2021/05/26 09:16:22;;;;;;;18.25;9.90;;;;;;;28.57;47.29;97020.16;4918484;29;20055;-71
2021/05/26 09:19:00;;;;;;;16.55;11.40;;;;;;;28.10;48.19;96936.38;4908453;29;20443;-64
2021/05/26 09:21:39;;;;;;;20.98;11.93;;;;;;;28.89;47.05;97016.31;4907932;29;20226;-71
2021/05/26 09:24:20;;;;;;;14.25;9.73;;;;;;;29.09;47.83;97016.44;4902570;29;20040;-65
2021/05/26 09:27:03;;;;;;;15.32;10.50;;;;;;;28.90;46.35;96970.19;4916332;29;20052;-64
2021/05/26 09:29:37;;;;;;;10.98;9.68;;;;;;;29.39;45.42;97017.94;4907686;29;20091;-63
2021/05/26 09:32:14;;;;;;;14.93;10.07;;;;;;;28.79;44.87;96974.91;4905925;29;20424;-75
2021/05/26 09:34:46;;;;;;;10.95;9.73;;;;;;;28.99;46.40;97017.81;4907001;29;20107;-65
2021/05/26 09:37:18;;;;;;;17.83;10.95;;;;;;;28.98;46.11;97010.50;4909632;29;20036;-60
2021/05/26 09:39:48;;;;;;;14.90;10.00;;;;;;;29.34;44.97;97010.06;4905837;29;20162;-69
2021/05/26 09:42:27;;;;;;;12.88;10.63;;;;;;;29.25;45.44;96990.22;4909594;29;20854;-62
2021/05/26 09:45:16;;;;;;;22.48;10.50;;;;;;;29.50;45.16;97009.53;4934413;29;20044;-69
2021/05/26 09:47:49;;;;;;;17.95;12.23;;;;;;;29.29;45.09;97007.94;4903059;29;20028;-72
2021/05/26 09:50:27;;;;;;;18.63;13.30;;;;;;;29.42;45.38;97005.53;4906491;29;20495;-72
2021/05/26 09:53:01;;;;;;;15.40;10.38;;;;;;;29.39;45.13;97007.31;4945857;28;20043;-73
2021/05/26 09:55:40;;;;;;;14.93;10.50;;;;;;;29.22;45.23;97005.50;4923600;29;20400;-63
2021/05/26 09:58:08;;;;;;;16.48;12.43;;;;;;;29.44;45.06;96983.00;4907920;29;20040;-73
2021/05/26 10:00:35;;;;;;;19.38;12.57;;;;;;;29.60;45.31;97016.72;4907701;29;20954;-63
2021/05/26 10:03:01;;;;;;;17.60;10.48;;;;;;;28.19;47.81;97012.41;4908778;29;20032;-63
2021/05/26 10:05:27;;;;;;;12.60;10.18;;;;;;;28.55;46.61;96989.28;4905714;29;20036;-63
2021/05/26 10:07:56;;;;;;;16.88;10.48;;;;;;;28.88;47.09;96980.53;4908068;29;20036;-64
2021/05/26 10:10:23;;;;;;;18.02;12.30;;;;;;;28.81;45.84;96949.56;4907559;29;20380;-64
2021/05/26 10:12:53;;;;;;;14.07;10.38;;;;;;;28.89;45.88;96956.44;4906039;29;20040;-64
2021/05/26 10:15:21;;;;;;;13.13;10.30;;;;;;;29.47;46.06;96982.78;4900175;29;20040;-65
2021/05/26 10:17:52;;;;;;;17.60;11.63;;;;;;;28.69;47.73;96942.88;4899404;29;20487;-73
2021/05/26 10:20:20;;;;;;;14.55;10.38;;;;;;;29.25;47.21;96998.78;4907200;29;20045;-66
2021/05/26 10:22:48;;;;;;;16.67;11.15;;;;;;;29.58;45.84;96993.56;4906611;29;20036;-70
2021/05/26 10:25:15;;;;;;;14.52;10.60;;;;;;;29.02;46.76;96965.47;4901074;29;20104;-73
2021/05/26 10:27:49;;;;;;;13.38;11.75;;;;;;;28.36;47.01;96868.16;4913026;29;20047;-68
2021/05/26 10:30:17;;;;;;;11.75;9.75;;;;;;;28.99;45.73;97000.69;4911104;29;20054;-68
2021/05/26 10:32:50;;;;;;;21.63;11.75;;;;;;;29.07;45.71;96990.47;4908588;29;20043;-61
2021/05/26 10:35:16;;;;;;;12.48;10.43;;;;;;;29.30;45.59;96984.63;4931729;29;20041;-64
2021/05/26 10:37:43;;;;;;;15.90;9.88;;;;;;;28.15;45.75;96867.28;4904048;29;20092;-74
2021/05/26 10:40:33;;;;;;;21.98;9.98;;;;;;;29.31;46.47;96982.53;4913085;29;20052;-75
2021/05/26 10:43:15;;;;;;;14.15;10.55;;;;;;;29.12;46.62;96986.91;4925780;29;20558;-66
2021/05/26 10:45:41;;;;;;;11.27;10.20;;;;;;;28.80;46.31;96928.03;4902180;29;20067;-66
2021/05/26 10:48:06;;;;;;;14.45;11.02;;;;;;;28.42;46.57;96911.03;4906155;29;20059;-71
2021/05/26 10:50:45;;;;;;;13.88;9.00;;;;;;;28.37;48.36;96977.25;4909027;29;20503;-68
2021/05/26 10:53:11;;;;;;;16.42;9.85;;;;;;;28.47;48.33;96981.59;4915405;29;20541;-69
2021/05/26 10:55:41;;;;;;;12.20;10.50;;;;;;;28.75;47.19;96974.34;4924921;29;20167;-72
2021/05/26 10:58:16;;;;;;;12.68;10.27;;;;;;;28.55;46.25;96937.19;4909658;29;20822;-71
2021/05/26 11:00:44;;;;;;;15.82;10.20;;;;;;;28.31;47.02;96896.56;4900584;29;20481;-61
2021/05/26 11:03:25;;;;;;;13.27;10.45;;;;;;;29.02;47.13;96959.75;4921325;29;20580;-63
2021/05/26 11:05:51;;;;;;;13.43;9.77;;;;;;;28.66;46.51;96937.38;4905446;29;20050;-66
2021/05/26 11:08:30;;;;;;;13.65;10.70;;;;;;;28.63;47.11;96961.19;4892479;29;20033;-70
2021/05/26 11:10:56;;;;;;;11.60;9.90;;;;;;;28.95;46.59;96954.44;4924414;29;20048;-61
2021/05/26 11:13:21;;;;;;;14.18;10.15;;;;;;;28.74;46.01;96881.53;4940961;28;20102;-72
2021/05/26 11:15:48;;;;;;;15.93;11.00;;;;;;;28.93;46.50;96939.88;4908781;29;20040;-59
2021/05/26 11:20:44;;;;;;;12.48;10.30;;;;;;;28.04;45.92;96872.78;4891792;29;20052;-61
2021/05/26 11:23:14;;;;;;;13.68;10.63;;;;;;;27.61;49.61;96938.97;4891723;29;20164;-60